Time;durP1;ratioP1;P1;durP2;ratioP2;P2;SDS_P1;SDS_P2;PMS_P1;PMS_P2;Temp;Humidity;BMP_temperature;BMP_pressure;BME280_temperature;BME280_humidity;BME280_pressure;Samples;Min_cycle;Max_cycle;Signal;HPM_P1;HPM_P2
2023/06/12 00:01:55;;;;;;;;;;;22.80;86.30;;;;;;7330538;19;111178;-68
2023/06/12 00:04:22;;;;;;;;;;;22.70;86.30;;;;;;7330627;19;109794;-68
2023/06/12 00:06:50;;;;;;;;;;;22.70;85.90;;;;;;7339851;19;110036;-68
2023/06/12 00:09:18;;;;;;;;;;;22.70;85.30;;;;;;7327191;19;111998;-68
2023/06/12 00:11:45;;;;;;;;;;;22.70;85.10;;;;;;7332524;19;110102;-68
2023/06/12 00:14:16;;;;;;;;;;;22.60;85.00;;;;;;7328724;19;131181;-68
2023/06/12 00:16:43;;;;;;;;;;;22.60;84.90;;;;;;7331378;19;110472;-68
2023/06/12 00:19:11;;;;;;;;;;;22.60;85.00;;;;;;7331878;19;110102;-68
2023/06/12 00:21:39;;;;;;;;;;;22.50;85.00;;;;;;7332841;19;110583;-68
2023/06/12 00:24:08;;;;;;;;;;;22.50;85.10;;;;;;7330046;19;109388;-68
2023/06/12 00:26:35;;;;;;;;;;;22.40;84.70;;;;;;7328832;19;111392;-68
2023/06/12 00:29:02;;;;;;;;;;;22.40;84.60;;;;;;7334496;19;111113;-68
2023/06/12 00:31:30;;;;;;;;;;;22.40;85.90;;;;;;7331389;19;109742;-68
2023/06/12 00:33:57;;;;;;;;;;;22.40;86.10;;;;;;7330352;19;111055;-68
2023/06/12 00:36:24;;;;;;;;;;;22.30;87.30;;;;;;7327489;19;109956;-68
2023/06/12 00:38:52;;;;;;;;;;;22.20;87.90;;;;;;7331631;19;109793;-68
2023/06/12 00:41:19;;;;;;;;;;;22.10;87.30;;;;;;7328064;19;110257;-68
2023/06/12 00:43:46;;;;;;;;;;;22.10;86.80;;;;;;7327189;19;110042;-68
2023/06/12 00:46:14;;;;;;;;;;;22.00;87.00;;;;;;7326877;19;110026;-68
2023/06/12 00:48:42;;;;;;;;;;;22.00;87.90;;;;;;7332139;19;110180;-67
2023/06/12 00:51:10;;;;;;;;;;;22.00;87.90;;;;;;7334736;19;110328;-67
2023/06/12 00:53:37;;;;;;;;;;;21.90;89.10;;;;;;7332614;19;110162;-67
2023/06/12 00:56:04;;;;;;;;;;;21.90;88.50;;;;;;7328999;19;109777;-67
2023/06/12 00:58:31;;;;;;;;;;;21.80;88.30;;;;;;7333780;19;110354;-67
2023/06/12 01:00:58;;;;;;;;;;;21.80;89.30;;;;;;7327501;19;110273;-67
2023/06/12 01:03:26;;;;;;;;;;;21.70;89.60;;;;;;7330592;19;109461;-67
2023/06/12 01:05:53;;;;;;;;;;;21.70;88.90;;;;;;7328821;19;113708;-68
2023/06/12 01:08:28;;;;;;;;;;;21.80;88.60;;;;;;7338528;19;110670;-67
2023/06/12 01:10:56;;;;;;;;;;;21.80;88.20;;;;;;7336263;19;109632;-67
2023/06/12 01:13:23;;;;;;;;;;;21.80;88.50;;;;;;7343164;19;109808;-67
2023/06/12 01:15:50;;;;;;;;;;;21.80;89.10;;;;;;7336768;19;110521;-68
2023/06/12 01:18:20;;;;;;;;;;;21.80;88.60;;;;;;7338337;19;109894;-67
2023/06/12 01:20:49;;;;;;;;;;;21.70;89.10;;;;;;7336328;19;110161;-68
2023/06/12 01:23:20;;;;;;;;;;;21.70;89.30;;;;;;7332450;19;109700;-67
2023/06/12 01:25:57;;;;;;;;;;;21.70;88.80;;;;;;7337930;19;109628;-67
2023/06/12 01:28:43;;;;;;;;;;;21.70;88.90;;;;;;7333476;19;110187;-67
2023/06/12 01:31:21;;;;;;;;;;;21.60;89.30;;;;;;7336110;19;111373;-68
2023/06/12 01:33:54;;;;;;;;;;;21.60;89.40;;;;;;7336915;19;110849;-67
2023/06/12 01:36:23;;;;;;;;;;;21.60;89.70;;;;;;7334984;19;111121;-67
2023/06/12 01:38:54;;;;;;;;;;;21.50;90.00;;;;;;7335750;19;111855;-68
2023/06/12 01:41:22;;;;;;;;;;;21.50;89.70;;;;;;7330872;19;110566;-67
2023/06/12 01:43:49;;;;;;;;;;;21.50;89.60;;;;;;7337009;19;109742;-67
2023/06/12 01:46:16;;;;;;;;;;;21.50;89.10;;;;;;7334020;19;112664;-67
2023/06/12 01:48:44;;;;;;;;;;;21.50;89.60;;;;;;7338466;19;111102;-67
2023/06/12 01:51:11;;;;;;;;;;;21.50;90.00;;;;;;7334523;19;110495;-67
2023/06/12 01:53:39;;;;;;;;;;;21.50;88.60;;;;;;7339574;19;109417;-67
2023/06/12 01:56:06;;;;;;;;;;;21.50;88.60;;;;;;7333336;19;110176;-67
2023/06/12 01:58:33;;;;;;;;;;;21.40;89.00;;;;;;7342847;19;110264;-67
2023/06/12 02:01:00;;;;;;;;;;;21.40;89.00;;;;;;7333707;19;110822;-67
2023/06/12 02:03:30;;;;;;;;;;;21.40;89.60;;;;;;7334379;19;110031;-67
2023/06/12 02:05:57;;;;;;;;;;;21.30;89.60;;;;;;7333298;19;110033;-67
2023/06/12 02:08:24;;;;;;;;;;;21.30;89.00;;;;;;7335537;19;110720;-67
2023/06/12 02:10:51;;;;;;;;;;;21.30;90.20;;;;;;7331400;19;111003;-67
2023/06/12 02:13:19;;;;;;;;;;;21.20;90.10;;;;;;7335319;19;115174;-67
2023/06/12 02:15:46;;;;;;;;;;;21.20;89.50;;;;;;7332661;19;110152;-67
2023/06/12 02:18:13;;;;;;;;;;;21.20;89.90;;;;;;7336274;19;111066;-67
2023/06/12 02:20:42;;;;;;;;;;;21.20;90.10;;;;;;7334514;19;112332;-67
2023/06/12 02:23:09;;;;;;;;;;;21.10;90.50;;;;;;7330714;19;115529;-67
2023/06/12 02:25:36;;;;;;;;;;;21.10;90.30;;;;;;7333896;19;109986;-67
2023/06/12 02:28:03;;;;;;;;;;;21.10;90.60;;;;;;7331453;19;111233;-67
2023/06/12 02:30:30;;;;;;;;;;;21.00;90.70;;;;;;7334854;19;110619;-67
2023/06/12 02:32:57;;;;;;;;;;;20.90;90.80;;;;;;7329584;19;110166;-67
2023/06/12 02:35:24;;;;;;;;;;;20.90;91.10;;;;;;7334186;19;110333;-67
2023/06/12 02:37:51;;;;;;;;;;;20.80;91.10;;;;;;7332417;19;109516;-67
2023/06/12 02:40:18;;;;;;;;;;;20.90;90.80;;;;;;7341709;19;110746;-67
2023/06/12 02:42:45;;;;;;;;;;;20.90;91.00;;;;;;7329314;19;110087;-67
2023/06/12 02:45:12;;;;;;;;;;;20.90;90.90;;;;;;7334059;19;110181;-67
2023/06/12 02:47:39;;;;;;;;;;;20.80;90.90;;;;;;7333936;19;111117;-67
2023/06/12 02:50:07;;;;;;;;;;;20.80;91.10;;;;;;7333333;19;109336;-67
2023/06/12 02:52:34;;;;;;;;;;;20.80;91.10;;;;;;7331865;19;110547;-67
2023/06/12 02:55:01;;;;;;;;;;;20.80;91.10;;;;;;7333216;19;110632;-67
2023/06/12 02:57:28;;;;;;;;;;;20.70;91.00;;;;;;7333952;19;109976;-67
2023/06/12 02:59:55;;;;;;;;;;;20.70;91.10;;;;;;7327907;19;111976;-67
2023/06/12 03:02:23;;;;;;;;;;;20.70;91.10;;;;;;7331665;19;110469;-67
2023/06/12 03:04:50;;;;;;;;;;;20.70;90.70;;;;;;7332233;19;109822;-67
2023/06/12 03:07:17;;;;;;;;;;;20.70;90.30;;;;;;7331200;19;111351;-67
2023/06/12 03:09:45;;;;;;;;;;;20.70;90.70;;;;;;7334307;19;110037;-67
2023/06/12 03:12:12;;;;;;;;;;;20.70;90.60;;;;;;7331664;19;109856;-67
2023/06/12 03:14:39;;;;;;;;;;;20.70;90.80;;;;;;7334651;19;114506;-67
2023/06/12 03:17:06;;;;;;;;;;;20.60;90.90;;;;;;7331436;19;110433;-67
2023/06/12 03:19:33;;;;;;;;;;;20.60;91.20;;;;;;7331293;19;109731;-67
2023/06/12 03:22:00;;;;;;;;;;;20.50;91.20;;;;;;7334177;19;110489;-69
2023/06/12 03:24:29;;;;;;;;;;;20.50;91.30;;;;;;7336203;19;109470;-67
2023/06/12 03:26:58;;;;;;;;;;;20.40;91.30;;;;;;7333509;19;111217;-67
2023/06/12 03:29:26;;;;;;;;;;;20.40;91.20;;;;;;7328982;19;109418;-67
2023/06/12 03:31:53;;;;;;;;;;;20.40;91.20;;;;;;7332209;19;109522;-67
2023/06/12 03:34:20;;;;;;;;;;;20.40;91.20;;;;;;7328654;19;110439;-67
2023/06/12 03:36:47;;;;;;;;;;;20.40;91.20;;;;;;7336051;19;109711;-67
2023/06/12 03:39:15;;;;;;;;;;;20.40;91.10;;;;;;7332109;19;110756;-67
2023/06/12 03:41:58;;;;;;;;;;;20.50;91.10;;;;;;7332022;19;111110;-67
2023/06/12 03:44:25;;;;;;;;;;;20.50;90.70;;;;;;7331222;19;111559;-67
2023/06/12 03:46:52;;;;;;;;;;;20.60;90.80;;;;;;7336734;19;109804;-67
2023/06/12 03:49:21;;;;;;;;;;;20.50;90.80;;;;;;7331055;19;111272;-67
2023/06/12 03:51:48;;;;;;;;;;;20.60;90.80;;;;;;7327966;19;109709;-67
2023/06/12 03:54:17;;;;;;;;;;;20.60;90.80;;;;;;7330503;19;110767;-67
2023/06/12 03:56:44;;;;;;;;;;;20.60;90.70;;;;;;7328533;19;109355;-69
2023/06/12 03:59:11;;;;;;;;;;;20.70;90.90;;;;;;7334008;19;110511;-69
2023/06/12 04:01:38;;;;;;;;;;;20.70;90.30;;;;;;7331354;19;109729;-67
2023/06/12 04:04:06;;;;;;;;;;;20.80;90.10;;;;;;7331430;19;111237;-67
2023/06/12 04:06:33;;;;;;;;;;;20.90;90.50;;;;;;7331657;19;110243;-71
2023/06/12 04:09:01;;;;;;;;;;;20.90;90.20;;;;;;7338784;19;110138;-80
2023/06/12 04:11:28;;;;;;;;;;;20.90;90.20;;;;;;7332102;19;109468;-77
2023/06/12 04:13:56;;;;;;;;;;;20.90;90.20;;;;;;7331327;19;111187;-73
2023/06/12 04:16:24;;;;;;;;;;;20.90;90.00;;;;;;7325801;19;110788;-75
2023/06/12 04:18:51;;;;;;;;;;;20.90;90.00;;;;;;7333748;19;109561;-72
2023/06/12 04:21:20;;;;;;;;;;;20.90;90.00;;;;;;7328579;19;111206;-72
2023/06/12 04:23:47;;;;;;;;;;;20.90;90.00;;;;;;7333583;19;109908;-69
2023/06/12 04:26:14;;;;;;;;;;;21.00;89.80;;;;;;7330558;19;110164;-69
2023/06/12 04:28:42;;;;;;;;;;;21.00;89.30;;;;;;7338216;19;111259;-70
2023/06/12 04:31:15;;;;;;;;;;;21.10;89.90;;;;;;7329339;19;111079;-68
2023/06/12 04:33:42;;;;;;;;;;;21.10;89.70;;;;;;7331290;19;110391;-67
2023/06/12 04:36:13;;;;;;;;;;;21.10;89.80;;;;;;7327018;19;109868;-67
2023/06/12 04:38:40;;;;;;;;;;;21.10;89.60;;;;;;7330728;19;109451;-73
2023/06/12 04:41:07;;;;;;;;;;;21.10;89.80;;;;;;7334707;19;110724;-67
2023/06/12 04:43:36;;;;;;;;;;;21.20;89.70;;;;;;7338729;19;109461;-68
2023/06/12 04:46:05;;;;;;;;;;;21.20;89.50;;;;;;7335914;19;109571;-68
2023/06/12 04:48:32;;;;;;;;;;;21.20;89.90;;;;;;7338065;19;110435;-69
2023/06/12 04:50:59;;;;;;;;;;;21.20;90.00;;;;;;7340852;19;110417;-71
2023/06/12 04:53:30;;;;;;;;;;;21.10;90.00;;;;;;7336648;19;110245;-68
2023/06/12 04:55:58;;;;;;;;;;;21.10;90.00;;;;;;7337404;19;109676;-69
2023/06/12 04:58:25;;;;;;;;;;;21.10;89.60;;;;;;7334562;19;110233;-68
2023/06/12 05:00:55;;;;;;;;;;;21.10;90.00;;;;;;7334337;19;110423;-67
2023/06/12 05:03:23;;;;;;;;;;;21.10;90.10;;;;;;7336995;19;109913;-67
2023/06/12 05:05:55;;;;;;;;;;;21.20;90.20;;;;;;7336166;19;111384;-67
2023/06/12 05:08:22;;;;;;;;;;;21.20;90.30;;;;;;7337649;19;110221;-68
2023/06/12 05:10:49;;;;;;;;;;;21.20;90.20;;;;;;7335260;19;109686;-68
2023/06/12 05:13:17;;;;;;;;;;;21.20;90.10;;;;;;7341247;19;109875;-69
2023/06/12 05:15:44;;;;;;;;;;;21.30;90.10;;;;;;7338324;19;110478;-69
2023/06/12 05:18:11;;;;;;;;;;;21.30;90.20;;;;;;7334196;19;111037;-68
2023/06/12 05:20:38;;;;;;;;;;;21.40;90.20;;;;;;7337161;19;111511;-68
2023/06/12 05:23:05;;;;;;;;;;;21.40;89.10;;;;;;7334134;19;109669;-68
2023/06/12 05:25:32;;;;;;;;;;;21.50;89.80;;;;;;7338213;19;110045;-68
2023/06/12 05:27:59;;;;;;;;;;;21.60;89.70;;;;;;7331520;19;110660;-68
2023/06/12 05:30:26;;;;;;;;;;;21.70;89.60;;;;;;7335612;19;110110;-69
2023/06/12 05:32:54;;;;;;;;;;;21.70;89.30;;;;;;7328999;19;111613;-68
2023/06/12 05:35:21;;;;;;;;;;;21.80;89.00;;;;;;7337024;19;111743;-68
2023/06/12 05:37:48;;;;;;;;;;;21.90;87.90;;;;;;7333410;19;110225;-68
2023/06/12 05:40:15;;;;;;;;;;;21.90;88.00;;;;;;7333413;19;111222;-68
2023/06/12 05:42:42;;;;;;;;;;;22.00;88.70;;;;;;7330641;19;109590;-68
2023/06/12 05:45:10;;;;;;;;;;;22.10;89.80;;;;;;7335152;19;109682;-66
2023/06/12 05:47:37;;;;;;;;;;;22.20;88.90;;;;;;7327064;19;110846;-67
2023/06/12 05:50:04;;;;;;;;;;;22.30;88.90;;;;;;7329720;19;110668;-68
2023/06/12 05:52:32;;;;;;;;;;;22.40;89.60;;;;;;7329863;19;110315;-67
2023/06/12 05:54:59;;;;;;;;;;;22.50;88.40;;;;;;7333663;19;116625;-67
2023/06/12 05:57:30;;;;;;;;;;;22.60;87.70;;;;;;7339642;19;109781;-67
2023/06/12 05:59:57;;;;;;;;;;;22.70;86.50;;;;;;7328676;19;112759;-67
2023/06/12 06:02:25;;;;;;;;;;;22.80;87.00;;;;;;7332372;19;109543;-67
2023/06/12 06:04:54;;;;;;;;;;;22.90;86.20;;;;;;7335167;19;109451;-67
2023/06/12 06:07:21;;;;;;;;;;;22.90;87.90;;;;;;7332846;19;110748;-67
2023/06/12 06:09:48;;;;;;;;;;;23.00;86.50;;;;;;7336729;19;109424;-67
2023/06/12 06:12:15;;;;;;;;;;;23.00;86.70;;;;;;7331262;19;110039;-67
2023/06/12 06:14:42;;;;;;;;;;;23.10;87.70;;;;;;7334705;19;110859;-67
2023/06/12 06:17:10;;;;;;;;;;;23.20;87.50;;;;;;7331655;19;109928;-67
2023/06/12 06:19:37;;;;;;;;;;;23.30;87.20;;;;;;7337771;19;109269;-68
2023/06/12 06:22:04;;;;;;;;;;;23.40;86.50;;;;;;7328631;19;109583;-68
2023/06/12 06:24:32;;;;;;;;;;;23.40;85.70;;;;;;7333057;19;109842;-70
2023/06/12 06:26:59;;;;;;;;;;;23.50;84.40;;;;;;7333194;19;111155;-68
2023/06/12 06:29:26;;;;;;;;;;;23.60;86.00;;;;;;7334968;19;109570;-69
2023/06/12 06:31:53;;;;;;;;;;;23.70;85.40;;;;;;7333054;19;110891;-68
2023/06/12 06:34:21;;;;;;;;;;;23.70;85.40;;;;;;7332454;19;111746;-68
2023/06/12 06:36:48;;;;;;;;;;;23.90;84.60;;;;;;7334778;19;109497;-69
2023/06/12 06:39:15;;;;;;;;;;;23.90;85.00;;;;;;7337242;19;111471;-69
2023/06/12 06:41:42;;;;;;;;;;;24.10;84.50;;;;;;7331441;19;109717;-69
2023/06/12 06:44:10;;;;;;;;;;;24.20;83.20;;;;;;7331675;19;110559;-67
2023/06/12 06:46:37;;;;;;;;;;;24.30;84.20;;;;;;7331585;19;111137;-68
2023/06/12 06:49:04;;;;;;;;;;;24.40;83.30;;;;;;7332343;19;112541;-69
2023/06/12 06:51:31;;;;;;;;;;;24.50;82.40;;;;;;7333702;19;110125;-68
2023/06/12 06:53:59;;;;;;;;;;;24.60;81.90;;;;;;7334256;19;110286;-69
2023/06/12 06:56:26;;;;;;;;;;;24.80;82.70;;;;;;7333953;19;110138;-68
2023/06/12 06:58:53;;;;;;;;;;;24.80;80.20;;;;;;7332628;19;110772;-68
2023/06/12 07:01:20;;;;;;;;;;;24.90;80.80;;;;;;7336287;19;110699;-68
2023/06/12 07:03:47;;;;;;;;;;;24.90;81.40;;;;;;7327276;19;109697;-69
2023/06/12 07:06:14;;;;;;;;;;;24.90;83.90;;;;;;7332128;19;110178;-68
2023/06/12 07:08:41;;;;;;;;;;;25.00;82.70;;;;;;7332861;19;111175;-68
2023/06/12 07:11:08;;;;;;;;;;;25.00;80.50;;;;;;7331786;19;109667;-69
2023/06/12 07:13:35;;;;;;;;;;;24.90;81.80;;;;;;7331835;19;110366;-67
2023/06/12 07:16:02;;;;;;;;;;;25.00;81.20;;;;;;7333670;19;110147;-67
2023/06/12 07:18:30;;;;;;;;;;;25.10;83.20;;;;;;7326211;19;111817;-67
2023/06/12 07:20:56;;;;;;;;;;;25.20;82.00;;;;;;7331132;19;110241;-67
2023/06/12 07:23:24;;;;;;;;;;;25.20;81.60;;;;;;7336498;19;111011;-66
2023/06/12 07:25:51;;;;;;;;;;;25.30;80.80;;;;;;7331237;19;111196;-67
2023/06/12 07:28:18;;;;;;;;;;;25.40;80.90;;;;;;7328931;19;110973;-67
2023/06/12 07:30:45;;;;;;;;;;;25.60;79.20;;;;;;7331511;19;109570;-67
2023/06/12 07:33:14;;;;;;;;;;;25.70;80.60;;;;;;7327032;19;110749;-67
2023/06/12 07:35:41;;;;;;;;;;;25.80;80.60;;;;;;7330099;19;109394;-67
2023/06/12 07:38:08;;;;;;;;;;;25.90;79.20;;;;;;7325848;19;109932;-67
2023/06/12 07:40:35;;;;;;;;;;;26.00;79.30;;;;;;7332745;19;110062;-68
2023/06/12 07:43:02;;;;;;;;;;;26.10;77.40;;;;;;7328608;19;110515;-68
2023/06/12 07:45:32;;;;;;;;;;;26.20;77.70;;;;;;7336696;19;109772;-68
2023/06/12 07:47:59;;;;;;;;;;;26.30;77.80;;;;;;7331861;19;110935;-68
2023/06/12 07:50:26;;;;;;;;;;;26.30;77.60;;;;;;7329137;19;109992;-68
2023/06/12 07:52:53;;;;;;;;;;;26.40;76.00;;;;;;7333506;19;110105;-68
2023/06/12 07:55:21;;;;;;;;;;;26.40;76.80;;;;;;7329107;19;110421;-68
2023/06/12 07:57:49;;;;;;;;;;;26.50;77.00;;;;;;7334896;19;110355;-68
2023/06/12 08:00:17;;;;;;;;;;;26.60;77.90;;;;;;7326431;19;110438;-69
2023/06/12 08:02:46;;;;;;;;;;;26.70;77.80;;;;;;7331917;19;109932;-71
2023/06/12 08:05:14;;;;;;;;;;;26.80;77.40;;;;;;7329139;19;113892;-72
2023/06/12 08:07:41;;;;;;;;;;;26.90;75.60;;;;;;7338435;19;110703;-71
2023/06/12 08:10:08;;;;;;;;;;;26.80;73.80;;;;;;7327084;19;112263;-72
2023/06/12 08:12:35;;;;;;;;;;;26.80;73.10;;;;;;7330438;19;112122;-71
2023/06/12 08:15:02;;;;;;;;;;;26.90;74.60;;;;;;7330299;19;109835;-70
2023/06/12 08:17:29;;;;;;;;;;;26.90;75.10;;;;;;7337344;19;110942;-69
2023/06/12 08:19:57;;;;;;;;;;;27.00;76.30;;;;;;7334194;19;115911;-70
2023/06/12 08:22:24;;;;;;;;;;;27.10;73.60;;;;;;7334759;19;114428;-65
2023/06/12 08:24:51;;;;;;;;;;;27.10;74.70;;;;;;7335483;19;110090;-65
2023/06/12 08:27:18;;;;;;;;;;;27.30;74.50;;;;;;7337765;19;111852;-65
2023/06/12 08:29:45;;;;;;;;;;;27.40;74.60;;;;;;7341658;19;109943;-65
2023/06/12 08:32:13;;;;;;;;;;;27.50;74.70;;;;;;7339708;19;110418;-65
2023/06/12 08:34:40;;;;;;;;;;;27.50;73.40;;;;;;7333542;19;110523;-64
2023/06/12 08:37:07;;;;;;;;;;;27.60;70.30;;;;;;7340834;19;110416;-65
2023/06/12 08:39:34;;;;;;;;;;;27.60;71.30;;;;;;7334356;19;111431;-65
2023/06/12 08:42:07;;;;;;;;;;;27.70;74.00;;;;;;7340328;19;109558;-65
2023/06/12 08:44:34;;;;;;;;;;;27.80;72.00;;;;;;7338479;19;109783;-65
2023/06/12 08:47:02;;;;;;;;;;;28.00;72.00;;;;;;7337107;19;110277;-63
2023/06/12 08:49:30;;;;;;;;;;;28.10;72.60;;;;;;7342440;19;109965;-64
2023/06/12 08:51:57;;;;;;;;;;;28.20;70.10;;;;;;7336490;19;109784;-65
2023/06/12 08:54:24;;;;;;;;;;;28.10;70.10;;;;;;7336197;19;112040;-64
2023/06/12 08:56:54;;;;;;;;;;;28.20;68.60;;;;;;7338121;19;110729;-66
2023/06/12 08:59:21;;;;;;;;;;;28.10;70.00;;;;;;7332854;19;111155;-66
2023/06/12 09:01:53;;;;;;;;;;;28.30;71.20;;;;;;7336105;19;113652;-66
2023/06/12 09:04:41;;;;;;;;;;;28.30;70.00;;;;;;7340139;19;110351;-64
2023/06/12 09:07:08;;;;;;;;;;;28.40;70.70;;;;;;7330797;19;111411;-65
2023/06/12 09:09:35;;;;;;;;;;;28.50;71.50;;;;;;7337483;19;109698;-67
2023/06/12 09:12:03;;;;;;;;;;;28.60;71.00;;;;;;7337347;19;111306;-65
2023/06/12 09:14:33;;;;;;;;;;;28.60;69.70;;;;;;7338556;19;109497;-65
2023/06/12 09:17:02;;;;;;;;;;;28.80;71.40;;;;;;7333528;19;110303;-66
2023/06/12 09:19:40;;;;;;;;;;;28.80;69.60;;;;;;7333943;19;111079;-64
2023/06/12 09:22:07;;;;;;;;;;;28.80;68.80;;;;;;7331860;19;109719;-70
2023/06/12 09:24:34;;;;;;;;;;;28.90;69.70;;;;;;7332620;19;114434;-66
2023/06/12 09:27:02;;;;;;;;;;;28.90;69.10;;;;;;7329328;19;110233;-67
2023/06/12 09:29:30;;;;;;;;;;;29.00;68.50;;;;;;7334522;19;110511;-67
2023/06/12 09:32:03;;;;;;;;;;;29.10;70.00;;;;;;7336966;19;111352;-68
2023/06/12 09:34:31;;;;;;;;;;;29.30;70.00;;;;;;7335585;19;111506;-68
2023/06/12 09:36:59;;;;;;;;;;;29.40;70.30;;;;;;7335122;19;110346;-66
2023/06/12 09:39:27;;;;;;;;;;;29.50;67.90;;;;;;7332388;19;110062;-67
2023/06/12 09:41:55;;;;;;;;;;;29.50;68.10;;;;;;7333839;19;111274;-66
2023/06/12 09:44:22;;;;;;;;;;;29.60;68.60;;;;;;7330985;19;110489;-67
2023/06/12 09:46:50;;;;;;;;;;;29.70;71.20;;;;;;7335431;19;111201;-68
2023/06/12 09:49:21;;;;;;;;;;;29.80;68.90;;;;;;7332567;19;110129;-67
2023/06/12 09:51:50;;;;;;;;;;;29.90;69.00;;;;;;7335628;19;112028;-70
2023/06/12 09:54:19;;;;;;;;;;;29.90;68.20;;;;;;7334143;19;111621;-66
2023/06/12 09:56:46;;;;;;;;;;;29.90;68.40;;;;;;7334674;19;112874;-67
2023/06/12 09:59:17;;;;;;;;;;;30.00;67.30;;;;;;7335087;19;111048;-67
2023/06/12 10:02:04;;;;;;;;;;;30.00;67.10;;;;;;7333477;19;109981;-67
2023/06/12 10:04:34;;;;;;;;;;;29.80;64.90;;;;;;7334352;19;109980;-67
2023/06/12 10:07:05;;;;;;;;;;;29.90;68.40;;;;;;7333476;19;110204;-67
2023/06/12 10:09:33;;;;;;;;;;;30.00;68.50;;;;;;7337544;19;109683;-67
2023/06/12 10:12:00;;;;;;;;;;;30.10;67.10;;;;;;7330281;19;111176;-67
2023/06/12 10:14:28;;;;;;;;;;;29.90;64.30;;;;;;7333583;19;111168;-68
2023/06/12 10:16:56;;;;;;;;;;;29.60;64.40;;;;;;7334364;19;111181;-67
2023/06/12 10:19:25;;;;;;;;;;;29.70;66.50;;;;;;7338826;19;109929;-67
2023/06/12 10:21:53;;;;;;;;;;;29.90;65.90;;;;;;7334304;19;110265;-68
2023/06/12 10:24:23;;;;;;;;;;;30.00;64.90;;;;;;7331007;19;109872;-67
2023/06/12 10:26:52;;;;;;;;;;;30.00;64.90;;;;;;7326718;19;110415;-66
2023/06/12 10:29:29;;;;;;;;;;;30.10;65.30;;;;;;7330254;19;109930;-67
2023/06/12 10:32:09;;;;;;;;;;;30.20;64.50;;;;;;7334651;19;110079;-67
2023/06/12 10:34:41;;;;;;;;;;;30.40;64.00;;;;;;7333497;19;111760;-67
2023/06/12 10:37:27;;;;;;;;;;;30.50;63.50;;;;;;7331124;19;110966;-66
2023/06/12 10:40:12;;;;;;;;;;;30.60;63.50;;;;;;7337548;19;110980;-66
2023/06/12 10:42:40;;;;;;;;;;;30.70;63.30;;;;;;7330516;19;109862;-67
2023/06/12 10:45:17;;;;;;;;;;;30.70;63.00;;;;;;7332326;19;109609;-69
2023/06/12 10:48:05;;;;;;;;;;;30.70;62.70;;;;;;7332236;19;110894;-67
2023/06/12 10:50:36;;;;;;;;;;;30.80;63.50;;;;;;7333676;19;111728;-67
2023/06/12 10:53:05;;;;;;;;;;;30.90;65.10;;;;;;7332118;19;114212;-67
2023/06/12 10:55:33;;;;;;;;;;;30.90;61.20;;;;;;7331279;19;110125;-66
2023/06/12 10:58:01;;;;;;;;;;;30.70;62.00;;;;;;7333147;19;109643;-66
2023/06/12 11:00:36;;;;;;;;;;;30.70;62.80;;;;;;7329876;19;109635;-66
2023/06/12 11:03:05;;;;;;;;;;;30.80;59.10;;;;;;7335489;19;113048;-66
2023/06/12 11:05:33;;;;;;;;;;;30.70;58.20;;;;;;7328958;19;110366;-66
2023/06/12 11:08:02;;;;;;;;;;;30.70;59.90;;;;;;7330864;19;110268;-66
2023/06/12 11:10:30;;;;;;;;;;;30.80;58.60;;;;;;7329460;19;109751;-65
2023/06/12 11:12:58;;;;;;;;;;;30.90;57.50;;;;;;7332405;19;109766;-65
2023/06/12 11:15:25;;;;;;;;;;;30.80;56.70;;;;;;7331552;19;112608;-65
2023/06/12 11:17:52;;;;;;;;;;;30.70;54.40;;;;;;7331328;19;111703;-67
2023/06/12 11:20:22;;;;;;;;;;;30.70;56.00;;;;;;7329733;19;111849;-66
2023/06/12 11:22:57;;;;;;;;;;;30.80;58.60;;;;;;7330686;19;112027;-66
2023/06/12 11:25:25;;;;;;;;;;;31.00;57.30;;;;;;7338935;19;110016;-66
2023/06/12 11:27:55;;;;;;;;;;;31.00;57.30;;;;;;7329932;19;111057;-65
2023/06/12 11:30:23;;;;;;;;;;;31.00;58.50;;;;;;7324906;19;110290;-66
2023/06/12 11:33:07;;;;;;;;;;;31.10;60.00;;;;;;7329059;19;110063;-66
2023/06/12 11:35:40;;;;;;;;;;;31.30;58.20;;;;;;7330858;19;110870;-65
2023/06/12 11:38:21;;;;;;;;;;;31.30;57.10;;;;;;7331620;19;110481;-65
2023/06/12 11:40:51;;;;;;;;;;;31.20;55.30;;;;;;7328265;19;111975;-66
2023/06/12 11:43:19;;;;;;;;;;;31.20;55.70;;;;;;7326460;19;111518;-66
2023/06/12 11:45:47;;;;;;;;;;;31.20;55.50;;;;;;7329738;19;110554;-66
2023/06/12 11:48:16;;;;;;;;;;;31.20;58.20;;;;;;7335983;19;110782;-66
2023/06/12 11:50:50;;;;;;;;;;;31.30;57.60;;;;;;7327268;19;110579;-66
2023/06/12 11:53:18;;;;;;;;;;;31.50;58.20;;;;;;7327305;19;110779;-66
2023/06/12 11:55:45;;;;;;;;;;;31.50;56.40;;;;;;7329488;19;110796;-65
2023/06/12 11:58:15;;;;;;;;;;;31.60;57.90;;;;;;7327717;19;110202;-67
2023/06/12 12:00:49;;;;;;;;;;;31.80;55.30;;;;;;7327329;19;111686;-66
2023/06/12 12:03:16;;;;;;;;;;;32.00;57.60;;;;;;7328348;19;111086;-66
2023/06/12 12:05:44;;;;;;;;;;;32.10;55.10;;;;;;7328809;19;110308;-65
2023/06/12 12:08:11;;;;;;;;;;;32.30;57.10;;;;;;7332341;19;113075;-66
2023/06/12 12:10:44;;;;;;;;;;;32.40;57.60;;;;;;7334201;19;111415;-66
2023/06/12 12:13:11;;;;;;;;;;;32.50;55.30;;;;;;7330727;19;112001;-66
2023/06/12 12:15:40;;;;;;;;;;;32.60;55.90;;;;;;7329174;19;109966;-66
2023/06/12 12:18:14;;;;;;;;;;;32.80;56.00;;;;;;7325387;19;109987;-66
2023/06/12 12:20:42;;;;;;;;;;;32.90;55.50;;;;;;7330003;19;110457;-66
2023/06/12 12:23:12;;;;;;;;;;;32.90;55.60;;;;;;7322880;19;112886;-67
2023/06/12 12:25:44;;;;;;;;;;;33.00;54.50;;;;;;7331505;19;111471;-65
2023/06/12 12:28:11;;;;;;;;;;;33.00;54.10;;;;;;7328564;19;111656;-66
2023/06/12 12:30:38;;;;;;;;;;;32.90;54.10;;;;;;7329347;19;111102;-66
2023/06/12 12:33:05;;;;;;;;;;;33.10;55.50;;;;;;7334443;19;109412;-67
2023/06/12 12:35:32;;;;;;;;;;;33.30;55.40;;;;;;7331232;19;111127;-67
2023/06/12 12:38:00;;;;;;;;;;;33.40;50.10;;;;;;7331282;19;109526;-67
2023/06/12 12:40:28;;;;;;;;;;;33.30;51.50;;;;;;7329697;19;109616;-67
2023/06/12 12:42:55;;;;;;;;;;;33.40;54.90;;;;;;7329416;19;115272;-67
2023/06/12 12:45:23;;;;;;;;;;;33.50;52.30;;;;;;7329985;19;110718;-67
2023/06/12 12:47:52;;;;;;;;;;;33.50;53.80;;;;;;7333886;19;109613;-66
2023/06/12 12:50:20;;;;;;;;;;;33.60;52.90;;;;;;7327768;19;109990;-66
2023/06/12 12:52:53;;;;;;;;;;;33.80;52.20;;;;;;7334992;19;109414;-67
2023/06/12 12:55:20;;;;;;;;;;;33.80;52.50;;;;;;7329555;19;111114;-66
2023/06/12 12:57:48;;;;;;;;;;;33.80;52.10;;;;;;7331993;19;110845;-67
2023/06/12 13:00:19;;;;;;;;;;;33.80;52.00;;;;;;7328547;19;111481;-67
2023/06/12 13:02:51;;;;;;;;;;;33.80;51.60;;;;;;7337073;19;111152;-67
2023/06/12 13:05:18;;;;;;;;;;;33.80;52.80;;;;;;7334709;19;110629;-67
2023/06/12 13:07:46;;;;;;;;;;;34.00;53.60;;;;;;7336878;19;110257;-67
2023/06/12 13:10:16;;;;;;;;;;;34.30;50.90;;;;;;7331701;19;113718;-68
2023/06/12 13:12:44;;;;;;;;;;;34.20;51.60;;;;;;7316941;19;112323;-67
2023/06/12 13:50:46;;;;;;;;;;;35.90;47.90;;;;;;7304140;19;113085;-62
2023/06/12 13:53:13;;;;;;;;;;;35.60;47.10;;;;;;7327256;19;110616;-62
2023/06/12 13:55:41;;;;;;;;;;;35.50;48.70;;;;;;7327463;19;109214;-62
2023/06/12 13:58:08;;;;;;;;;;;35.60;46.20;;;;;;7329613;19;110036;-67
2023/06/12 14:00:37;;;;;;;;;;;35.30;46.90;;;;;;7332578;19;110422;-63
2023/06/12 14:03:04;;;;;;;;;;;35.30;46.90;;;;;;7341195;19;108864;-62
2023/06/12 14:05:31;;;;;;;;;;;35.30;46.90;;;;;;7332788;19;112938;-62
2023/06/12 14:07:58;;;;;;;;;;;35.20;45.50;;;;;;7334617;19;109060;-62
2023/06/12 14:10:26;;;;;;;;;;;35.40;48.80;;;;;;7329140;19;109470;-62
2023/06/12 14:12:54;;;;;;;;;;;35.80;46.40;;;;;;7331745;19;109194;-62
2023/06/12 14:15:22;;;;;;;;;;;36.00;47.50;;;;;;7335044;19;109372;-62
2023/06/12 14:17:49;;;;;;;;;;;36.00;46.10;;;;;;7332372;19;109621;-63
2023/06/12 14:20:16;;;;;;;;;;;36.10;48.00;;;;;;7331586;19;109472;-62
2023/06/12 14:22:44;;;;;;;;;;;36.10;48.20;;;;;;7338850;19;108399;-65
2023/06/12 14:25:12;;;;;;;;;;;36.20;49.20;;;;;;7340453;19;110009;-62
2023/06/12 14:27:42;;;;;;;;;;;36.30;47.80;;;;;;7331702;19;108869;-66
2023/06/12 14:30:10;;;;;;;;;;;36.40;48.60;;;;;;7337012;19;108788;-62
2023/06/12 14:32:37;;;;;;;;;;;36.60;49.20;;;;;;7334404;19;109833;-62
2023/06/12 14:35:05;;;;;;;;;;;36.70;48.70;;;;;;7334236;19;110221;-62
2023/06/12 14:37:32;;;;;;;;;;;36.70;48.30;;;;;;7330841;19;108612;-62
2023/06/12 14:39:59;;;;;;;;;;;36.70;49.00;;;;;;7327506;19;109190;-63
2023/06/12 14:42:26;;;;;;;;;;;36.70;46.80;;;;;;7331333;19;109918;-63
2023/06/12 14:44:54;;;;;;;;;;;36.30;45.50;;;;;;7333907;19;108751;-62
2023/06/12 14:47:21;;;;;;;;;;;36.40;47.60;;;;;;7335014;19;109420;-63